Northern Highway — 3EVE6 — position and weather

sailwx.info

Track history (hours):
 
Tides and Currents Weather Stations Pressure Air Temp Water Temp Dewpoint Dewpoint Depression Visibility Wind Speed Wind Dir Waves Ship Positions

Northern Highway

Last reported at 2017-Feb-23 23:34 UTC. Time now 2017-Feb-23 23:55 UTC.
Position N 01°05' E 103°43'.

Length 188 m; draft 7 m.

Type: Cargo ship. MMSI: 371608000.

Date/timePositionNaut miles runAvg speedWind from/ knotsBaromVisibWave heightAir tempDewpointWater temp
2017-Feb-23 23:34N 01°05' E 103°43'9 8.6
2017-Feb-23 22:33N 01°05' E 103°35'1413.5
2017-Feb-23 21:33N 01°12' E 103°23'6416.0
2017-Feb-23 17:32N 01°47' E 102°29'1616.0
2017-Feb-23 16:30N 01°54' E 102°14'  
2017-Feb-16 03:31S 19°18' E 059°57'2016.7
2017-Feb-16 02:21S 19°30' E 059°40'1416.7
2017-Feb-16 01:32S 19°37' E 059°28'8416.8
2017-Feb-15 20:32S 20°25' E 058°15'3616.9
2017-Feb-15 18:23S 20°45' E 057°43'1416.9
2017-Feb-15 17:33S 20°53' E 057°30'1816.9
2017-Feb-15 16:31S 21°02' E 057°14'  
Track history (hours):
 
Tides and Currents Weather Stations Pressure Air Temp Water Temp Dewpoint Dewpoint Depression Visibility Wind Speed Wind Dir Waves Ship Positions

Northern Highway

Last reported at 2017-Feb-23 23:34 UTC. Time now 2017-Feb-23 23:55 UTC.
Position N 01°05' E 103°43'.

Length 188 m; draft 7 m.

Type: Cargo ship. MMSI: 371608000.

Date/timePositionNaut miles runAvg speedWind from/ knotsBaromVisibWave heightAir tempDewpointWater temp
2017-Feb-23 23:34N 01°05' E 103°43'9 8.6
2017-Feb-23 22:33N 01°05' E 103°35'1413.5
2017-Feb-23 21:33N 01°12' E 103°23'6416.0
2017-Feb-23 17:32N 01°47' E 102°29'1616.0
2017-Feb-23 16:30N 01°54' E 102°14'  
2017-Feb-16 03:31S 19°18' E 059°57'2016.7
2017-Feb-16 02:21S 19°30' E 059°40'1416.7
2017-Feb-16 01:32S 19°37' E 059°28'8416.8
2017-Feb-15 20:32S 20°25' E 058°15'3616.9
2017-Feb-15 18:23S 20°45' E 057°43'1416.9
2017-Feb-15 17:33S 20°53' E 057°30'1816.9
2017-Feb-15 16:31S 21°02' E 057°14'  

Dump ship's entire track history